Aérodrome :
LOGIN :

S'inscrire | Disclaimer

   EN    FR    IT 

 










Légende :    VFR   VFR Marginal   IFR   IFR Intensif   IFR Très Intensif
Visi : 
Plafond : 
>= 8 km
>= 3000ft
5 à 8 km
1000 à 3000 ft
1500m à 5 km
500 à 1000 ft
800 à 1500m
200 à 500 ft
< 800m
< 200 ft
Symboles :   Orages  Brouillard  Fortes neiges  Fortes précipitations  Vent > 20 kt
SIGMETs :   Divers  Orages  Givrage  Turbulence  Onde Orograph.  Cendres Volcan.






- Altitude de l'aérodrome : 1234 ft
- Code IATA : LUX


ELLX - Luxembourg Findel

DERNIER METAR :
  • 280720Z 20005KT 0300 R24/1700D -SHSN FG BKN002 00/00 Q0994 TEMPO 0300 SHSN FG

METARs EXPIRÉS :
  • 280650Z AUTO 20005KT 1600 0900// R24/1700D -SN SCT002/// BKN003/// OVC006/// 00/M00 Q0994 TEMPO 1000 SHSN
  • 280620Z 20005KT 1500 R24/P2000N -SHSN BKN001 00/M00 Q0994 RESN TEMPO 1000 SHSN
  • 280550Z 19004KT 1700 -SHSN SCT001 BKN003 00/M00 Q0994 TEMPO 1000 SHSN
  • 280520Z 19004KT 1000 R24/1800N SHSN SCT001 OVC002 00/M00 Q0994 NOSIG
  • 280450Z 20006KT 1500 -SHSN BR OVC002 01/00 Q0994 NOSIG

TAF AMD TAF ELLX
Valide du 28 à 06h jusqu'au 29 à 12h UTC


280600Z 2806/2912 20007KT 6000 BKN008
TEMPO 2806/2809 0500 SHSN FG BKN002
TEMPO 28010/2813 3000 -SHRASN BKN003
BECMG 2809/2811 30007KT BKN015
TEMPO 2817/2823 4500 -RASN BKN009
TEMPO 2823/2909 4000 BR BKN007
ATIS : +352 4798 27300
Météo : +352 4798 27010 / 27050



MET'MAP, la Météo Aéronautique d'un coup d'oeil ! - Copyright ORBIFLY Décembre 2007 - Disclaimer

ORBIFLY MET'MAP TEAM :

Programmation & Développement : Alexandra Zaïnal
Sur une idée originale de : Baudouin d'Aumeries
Assistance à la programmation : Marc-Olivier Méhu
Soutien technique & logistique : Manuel Goepfert

Contact : metmap@orbifly.com




SOURCES & CREDITS :

   NOAA